sensor_id;sensor_type;location;lat;lon;timestamp;temperature;humidity
23143;DHT22;11740;51.168;4.112;2023-12-20T00:02:12;5.90;99.90
23143;DHT22;11740;51.168;4.112;2023-12-20T00:04:39;5.90;99.90
23143;DHT22;11740;51.168;4.112;2023-12-20T00:07:06;5.90;99.90
23143;DHT22;11740;51.168;4.112;2023-12-20T00:09:33;5.80;99.90
23143;DHT22;11740;51.168;4.112;2023-12-20T00:12:00;5.80;99.90
23143;DHT22;11740;51.168;4.112;2023-12-20T00:14:28;5.80;99.90
23143;DHT22;11740;51.168;4.112;2023-12-20T00:16:54;5.80;99.90
23143;DHT22;11740;51.168;4.112;2023-12-20T00:19:21;5.80;99.90
23143;DHT22;11740;51.168;4.112;2023-12-20T00:21:49;5.80;99.90
23143;DHT22;11740;51.168;4.112;2023-12-20T00:24:16;5.80;99.90
23143;DHT22;11740;51.168;4.112;2023-12-20T00:26:43;5.80;99.90
23143;DHT22;11740;51.168;4.112;2023-12-20T00:29:10;5.70;99.90
23143;DHT22;11740;51.168;4.112;2023-12-20T00:31:36;5.70;99.90
23143;DHT22;11740;51.168;4.112;2023-12-20T00:34:03;5.70;99.90
23143;DHT22;11740;51.168;4.112;2023-12-20T00:36:30;5.70;99.90
23143;DHT22;11740;51.168;4.112;2023-12-20T00:38:57;5.70;99.90
23143;DHT22;11740;51.168;4.112;2023-12-20T00:41:24;5.70;99.90
23143;DHT22;11740;51.168;4.112;2023-12-20T00:43:51;5.70;99.90
23143;DHT22;11740;51.168;4.112;2023-12-20T00:46:18;5.70;99.90
23143;DHT22;11740;51.168;4.112;2023-12-20T00:48:46;5.70;99.90
23143;DHT22;11740;51.168;4.112;2023-12-20T00:51:13;5.60;99.90
23143;DHT22;11740;51.168;4.112;2023-12-20T00:53:40;5.70;99.90
23143;DHT22;11740;51.168;4.112;2023-12-20T00:56:07;5.60;99.90
23143;DHT22;11740;51.168;4.112;2023-12-20T00:58:34;5.60;99.90
23143;DHT22;11740;51.168;4.112;2023-12-20T01:01:01;5.60;99.90
23143;DHT22;11740;51.168;4.112;2023-12-20T01:03:29;5.60;99.90
23143;DHT22;11740;51.168;4.112;2023-12-20T01:05:56;5.60;99.90
23143;DHT22;11740;51.168;4.112;2023-12-20T01:08:23;5.50;99.90
23143;DHT22;11740;51.168;4.112;2023-12-20T01:10:49;5.50;99.90
23143;DHT22;11740;51.168;4.112;2023-12-20T01:13:16;5.50;99.90
23143;DHT22;11740;51.168;4.112;2023-12-20T01:15:43;5.40;99.90
23143;DHT22;11740;51.168;4.112;2023-12-20T01:18:10;5.40;99.90
23143;DHT22;11740;51.168;4.112;2023-12-20T01:20:37;5.40;99.90
23143;DHT22;11740;51.168;4.112;2023-12-20T01:23:04;5.40;99.90
23143;DHT22;11740;51.168;4.112;2023-12-20T01:25:31;5.40;99.90
23143;DHT22;11740;51.168;4.112;2023-12-20T01:27:58;5.40;99.90
23143;DHT22;11740;51.168;4.112;2023-12-20T01:30:25;5.40;99.90
23143;DHT22;11740;51.168;4.112;2023-12-20T01:32:52;5.40;99.90
23143;DHT22;11740;51.168;4.112;2023-12-20T01:35:19;5.40;99.90
23143;DHT22;11740;51.168;4.112;2023-12-20T01:37:46;5.40;1.00
23143;DHT22;11740;51.168;4.112;2023-12-20T01:40:13;5.40;1.00
23143;DHT22;11740;51.168;4.112;2023-12-20T01:42:41;5.40;1.00
23143;DHT22;11740;51.168;4.112;2023-12-20T01:45:08;5.40;1.00
23143;DHT22;11740;51.168;4.112;2023-12-20T01:47:36;5.40;1.00
23143;DHT22;11740;51.168;4.112;2023-12-20T01:50:04;5.40;1.00
23143;DHT22;11740;51.168;4.112;2023-12-20T01:52:32;5.40;1.00
23143;DHT22;11740;51.168;4.112;2023-12-20T01:55:01;5.40;1.00
23143;DHT22;11740;51.168;4.112;2023-12-20T01:57:30;5.30;1.00
23143;DHT22;11740;51.168;4.112;2023-12-20T01:59:58;5.40;1.00
23143;DHT22;11740;51.168;4.112;2023-12-20T02:02:26;5.30;1.00
23143;DHT22;11740;51.168;4.112;2023-12-20T02:04:54;5.30;1.00
23143;DHT22;11740;51.168;4.112;2023-12-20T02:07:22;5.40;1.00
23143;DHT22;11740;51.168;4.112;2023-12-20T02:09:50;5.40;1.00
23143;DHT22;11740;51.168;4.112;2023-12-20T02:12:17;5.40;1.00
23143;DHT22;11740;51.168;4.112;2023-12-20T02:14:44;5.40;1.00
23143;DHT22;11740;51.168;4.112;2023-12-20T02:17:11;5.40;1.00
23143;DHT22;11740;51.168;4.112;2023-12-20T02:19:38;5.40;1.00
23143;DHT22;11740;51.168;4.112;2023-12-20T02:22:14;5.40;1.00
23143;DHT22;11740;51.168;4.112;2023-12-20T02:24:41;5.40;15.60
23143;DHT22;11740;51.168;4.112;2023-12-20T02:27:08;5.40;53.60
23143;DHT22;11740;51.168;4.112;2023-12-20T02:29:36;5.40;66.40
23143;DHT22;11740;51.168;4.112;2023-12-20T02:32:03;5.40;99.00
23143;DHT22;11740;51.168;4.112;2023-12-20T02:34:30;5.40;99.90
23143;DHT22;11740;51.168;4.112;2023-12-20T02:36:57;5.40;99.90
23143;DHT22;11740;51.168;4.112;2023-12-20T02:39:23;5.40;99.90
23143;DHT22;11740;51.168;4.112;2023-12-20T02:41:50;5.40;99.90
23143;DHT22;11740;51.168;4.112;2023-12-20T02:44:17;5.40;99.90
23143;DHT22;11740;51.168;4.112;2023-12-20T02:46:44;5.40;99.90
23143;DHT22;11740;51.168;4.112;2023-12-20T02:49:11;5.40;99.90
23143;DHT22;11740;51.168;4.112;2023-12-20T02:51:38;5.40;99.90
23143;DHT22;11740;51.168;4.112;2023-12-20T02:54:05;5.40;99.90
23143;DHT22;11740;51.168;4.112;2023-12-20T02:56:33;5.40;99.90
23143;DHT22;11740;51.168;4.112;2023-12-20T02:59:00;5.40;99.90
23143;DHT22;11740;51.168;4.112;2023-12-20T03:01:27;5.40;99.90
23143;DHT22;11740;51.168;4.112;2023-12-20T03:03:54;5.40;99.90
23143;DHT22;11740;51.168;4.112;2023-12-20T03:06:21;5.40;99.90
23143;DHT22;11740;51.168;4.112;2023-12-20T03:08:48;5.40;99.90
23143;DHT22;11740;51.168;4.112;2023-12-20T03:11:15;5.40;99.90
23143;DHT22;11740;51.168;4.112;2023-12-20T03:13:42;5.30;84.40
23143;DHT22;11740;51.168;4.112;2023-12-20T03:16:13;5.30;99.90
23143;DHT22;11740;51.168;4.112;2023-12-20T03:18:40;5.30;78.30
23143;DHT22;11740;51.168;4.112;2023-12-20T03:21:07;5.30;99.90
23143;DHT22;11740;51.168;4.112;2023-12-20T03:23:34;5.30;99.90
23143;DHT22;11740;51.168;4.112;2023-12-20T03:26:01;5.40;99.90
23143;DHT22;11740;51.168;4.112;2023-12-20T03:28:30;5.40;99.90
23143;DHT22;11740;51.168;4.112;2023-12-20T03:30:57;5.40;99.90
23143;DHT22;11740;51.168;4.112;2023-12-20T03:33:24;5.40;99.90
23143;DHT22;11740;51.168;4.112;2023-12-20T03:35:50;5.40;99.90
23143;DHT22;11740;51.168;4.112;2023-12-20T03:38:18;5.50;99.90
23143;DHT22;11740;51.168;4.112;2023-12-20T03:40:44;5.40;99.90
23143;DHT22;11740;51.168;4.112;2023-12-20T03:43:11;5.40;99.90
23143;DHT22;11740;51.168;4.112;2023-12-20T03:45:38;5.40;99.90
23143;DHT22;11740;51.168;4.112;2023-12-20T03:48:05;5.30;99.90
23143;DHT22;11740;51.168;4.112;2023-12-20T07:19:25;5.20;1.00
23143;DHT22;11740;51.168;4.112;2023-12-20T07:21:52;5.20;1.00
23143;DHT22;11740;51.168;4.112;2023-12-20T07:24:20;5.10;1.00
23143;DHT22;11740;51.168;4.112;2023-12-20T07:26:46;5.10;1.00
23143;DHT22;11740;51.168;4.112;2023-12-20T07:29:13;5.10;1.00
23143;DHT22;11740;51.168;4.112;2023-12-20T07:31:40;5.10;1.00
23143;DHT22;11740;51.168;4.112;2023-12-20T07:34:07;5.00;1.00
23143;DHT22;11740;51.168;4.112;2023-12-20T07:36:34;5.10;1.00
23143;DHT22;11740;51.168;4.112;2023-12-20T07:39:01;5.10;1.00
23143;DHT22;11740;51.168;4.112;2023-12-20T07:41:28;5.10;1.00
23143;DHT22;11740;51.168;4.112;2023-12-20T07:43:55;5.10;1.00
23143;DHT22;11740;51.168;4.112;2023-12-20T07:46:23;5.10;1.00
23143;DHT22;11740;51.168;4.112;2023-12-20T07:48:50;5.10;1.00
23143;DHT22;11740;51.168;4.112;2023-12-20T07:51:17;5.10;1.00
23143;DHT22;11740;51.168;4.112;2023-12-20T07:53:44;5.10;1.00
23143;DHT22;11740;51.168;4.112;2023-12-20T07:56:18;5.10;1.00
23143;DHT22;11740;51.168;4.112;2023-12-20T07:58:46;5.10;1.00
23143;DHT22;11740;51.168;4.112;2023-12-20T08:01:19;5.10;1.00
23143;DHT22;11740;51.168;4.112;2023-12-20T08:03:49;5.10;1.00
23143;DHT22;11740;51.168;4.112;2023-12-20T08:06:17;5.20;1.00
23143;DHT22;11740;51.168;4.112;2023-12-20T08:08:45;5.20;1.00
23143;DHT22;11740;51.168;4.112;2023-12-20T08:11:21;5.20;1.00
23143;DHT22;11740;51.168;4.112;2023-12-20T08:13:47;5.20;1.00
23143;DHT22;11740;51.168;4.112;2023-12-20T08:16:14;5.20;1.00
23143;DHT22;11740;51.168;4.112;2023-12-20T08:18:44;5.20;1.00
23143;DHT22;11740;51.168;4.112;2023-12-20T08:21:11;5.20;1.00
23143;DHT22;11740;51.168;4.112;2023-12-20T08:23:38;5.20;1.00
23143;DHT22;11740;51.168;4.112;2023-12-20T08:26:08;5.20;1.00
23143;DHT22;11740;51.168;4.112;2023-12-20T08:28:36;5.20;1.00
23143;DHT22;11740;51.168;4.112;2023-12-20T08:31:03;5.20;1.00
23143;DHT22;11740;51.168;4.112;2023-12-20T08:33:31;5.10;1.00
23143;DHT22;11740;51.168;4.112;2023-12-20T08:35:58;5.20;1.00
23143;DHT22;11740;51.168;4.112;2023-12-20T08:38:25;5.20;1.00
23143;DHT22;11740;51.168;4.112;2023-12-20T08:40:52;5.20;1.00
23143;DHT22;11740;51.168;4.112;2023-12-20T08:43:21;5.20;1.00
23143;DHT22;11740;51.168;4.112;2023-12-20T08:45:48;5.20;1.00
23143;DHT22;11740;51.168;4.112;2023-12-20T08:48:15;5.20;1.00
23143;DHT22;11740;51.168;4.112;2023-12-20T08:50:42;5.20;1.00
23143;DHT22;11740;51.168;4.112;2023-12-20T08:53:10;5.20;1.00
23143;DHT22;11740;51.168;4.112;2023-12-20T08:55:37;5.30;1.00
23143;DHT22;11740;51.168;4.112;2023-12-20T08:58:04;5.20;1.00
23143;DHT22;11740;51.168;4.112;2023-12-20T09:00:33;5.30;1.00
23143;DHT22;11740;51.168;4.112;2023-12-20T09:03:04;5.30;1.00
23143;DHT22;11740;51.168;4.112;2023-12-20T09:05:31;5.30;1.00
23143;DHT22;11740;51.168;4.112;2023-12-20T09:07:58;5.30;1.00
23143;DHT22;11740;51.168;4.112;2023-12-20T09:10:25;5.40;1.00
23143;DHT22;11740;51.168;4.112;2023-12-20T09:12:52;5.50;1.00
23143;DHT22;11740;51.168;4.112;2023-12-20T09:15:25;5.50;1.00
23143;DHT22;11740;51.168;4.112;2023-12-20T09:17:52;5.50;99.90
23143;DHT22;11740;51.168;4.112;2023-12-20T09:20:20;5.60;1.00
23143;DHT22;11740;51.168;4.112;2023-12-20T09:22:47;5.60;1.00
23143;DHT22;11740;51.168;4.112;2023-12-20T09:25:14;5.60;1.00
23143;DHT22;11740;51.168;4.112;2023-12-20T09:27:42;5.60;99.90
23143;DHT22;11740;51.168;4.112;2023-12-20T09:30:10;5.60;99.90
23143;DHT22;11740;51.168;4.112;2023-12-20T09:32:38;5.70;99.90
23143;DHT22;11740;51.168;4.112;2023-12-20T09:35:05;5.70;99.90
23143;DHT22;11740;51.168;4.112;2023-12-20T09:37:33;5.70;99.90
23143;DHT22;11740;51.168;4.112;2023-12-20T09:40:00;5.70;99.90
23143;DHT22;11740;51.168;4.112;2023-12-20T09:43:03;5.80;99.90
23143;DHT22;11740;51.168;4.112;2023-12-20T09:45:31;5.80;99.90
23143;DHT22;11740;51.168;4.112;2023-12-20T09:47:58;5.80;99.90
23143;DHT22;11740;51.168;4.112;2023-12-20T09:50:26;5.90;99.90
23143;DHT22;11740;51.168;4.112;2023-12-20T09:52:54;5.90;99.90
23143;DHT22;11740;51.168;4.112;2023-12-20T09:55:27;6.00;99.90
23143;DHT22;11740;51.168;4.112;2023-12-20T09:57:55;6.00;99.90
23143;DHT22;11740;51.168;4.112;2023-12-20T10:00:22;6.00;99.90
23143;DHT22;11740;51.168;4.112;2023-12-20T10:02:56;6.00;99.90
23143;DHT22;11740;51.168;4.112;2023-12-20T10:05:27;6.10;99.90
23143;DHT22;11740;51.168;4.112;2023-12-20T10:07:55;6.00;99.90
23143;DHT22;11740;51.168;4.112;2023-12-20T10:10:22;6.10;99.90
23143;DHT22;11740;51.168;4.112;2023-12-20T10:13:05;6.20;99.90
23143;DHT22;11740;51.168;4.112;2023-12-20T10:15:33;6.20;99.90
23143;DHT22;11740;51.168;4.112;2023-12-20T10:18:04;6.30;99.90
23143;DHT22;11740;51.168;4.112;2023-12-20T10:20:32;6.20;99.90
23143;DHT22;11740;51.168;4.112;2023-12-20T10:23:00;6.20;99.90
23143;DHT22;11740;51.168;4.112;2023-12-20T10:25:28;6.20;99.90
23143;DHT22;11740;51.168;4.112;2023-12-20T10:28:14;6.20;99.90
23143;DHT22;11740;51.168;4.112;2023-12-20T10:30:44;6.30;99.90
23143;DHT22;11740;51.168;4.112;2023-12-20T10:33:11;6.30;99.90
23143;DHT22;11740;51.168;4.112;2023-12-20T10:35:39;6.30;99.90
23143;DHT22;11740;51.168;4.112;2023-12-20T10:38:12;6.30;99.90
23143;DHT22;11740;51.168;4.112;2023-12-20T10:40:40;6.40;99.90
23143;DHT22;11740;51.168;4.112;2023-12-20T10:43:08;6.40;99.90
23143;DHT22;11740;51.168;4.112;2023-12-20T10:45:36;6.40;99.90
23143;DHT22;11740;51.168;4.112;2023-12-20T10:48:04;6.40;99.90
23143;DHT22;11740;51.168;4.112;2023-12-20T10:50:31;6.50;99.90
23143;DHT22;11740;51.168;4.112;2023-12-20T10:52:59;6.50;99.90
23143;DHT22;11740;51.168;4.112;2023-12-20T10:55:27;6.50;99.90
23143;DHT22;11740;51.168;4.112;2023-12-20T10:58:00;6.50;99.90
23143;DHT22;11740;51.168;4.112;2023-12-20T11:00:29;6.50;99.90
23143;DHT22;11740;51.168;4.112;2023-12-20T11:03:00;6.50;99.90
23143;DHT22;11740;51.168;4.112;2023-12-20T11:08:32;6.60;99.90
23143;DHT22;11740;51.168;4.112;2023-12-20T11:13:37;6.60;1.00
23143;DHT22;11740;51.168;4.112;2023-12-20T11:16:07;6.60;1.00
23143;DHT22;11740;51.168;4.112;2023-12-20T11:18:35;6.60;1.00
23143;DHT22;11740;51.168;4.112;2023-12-20T11:21:04;6.70;1.00
23143;DHT22;11740;51.168;4.112;2023-12-20T11:23:35;6.70;1.00
23143;DHT22;11740;51.168;4.112;2023-12-20T11:26:03;6.70;1.00
23143;DHT22;11740;51.168;4.112;2023-12-20T11:28:30;6.80;1.00
23143;DHT22;11740;51.168;4.112;2023-12-20T11:30:58;6.70;1.00
23143;DHT22;11740;51.168;4.112;2023-12-20T11:33:31;6.80;1.00
23143;DHT22;11740;51.168;4.112;2023-12-20T11:35:59;6.80;99.90
23143;DHT22;11740;51.168;4.112;2023-12-20T11:38:27;6.80;99.90
23143;DHT22;11740;51.168;4.112;2023-12-20T11:40:54;6.80;99.90
23143;DHT22;11740;51.168;4.112;2023-12-20T11:43:36;6.90;99.90
23143;DHT22;11740;51.168;4.112;2023-12-20T11:46:04;6.90;1.00
23143;DHT22;11740;51.168;4.112;2023-12-20T11:48:39;6.90;99.90
23143;DHT22;11740;51.168;4.112;2023-12-20T11:51:12;6.90;99.90
23143;DHT22;11740;51.168;4.112;2023-12-20T11:53:42;7.00;1.00
23143;DHT22;11740;51.168;4.112;2023-12-20T11:56:10;7.00;1.00
23143;DHT22;11740;51.168;4.112;2023-12-20T11:58:37;7.00;1.00
23143;DHT22;11740;51.168;4.112;2023-12-20T12:01:05;7.00;1.00
23143;DHT22;11740;51.168;4.112;2023-12-20T12:03:35;7.10;99.90
23143;DHT22;11740;51.168;4.112;2023-12-20T12:06:02;7.20;99.90
23143;DHT22;11740;51.168;4.112;2023-12-20T12:08:32;7.20;99.90
23143;DHT22;11740;51.168;4.112;2023-12-20T12:10:59;7.20;99.90
23143;DHT22;11740;51.168;4.112;2023-12-20T12:13:26;7.20;99.90
23143;DHT22;11740;51.168;4.112;2023-12-20T12:15:54;7.20;99.90
23143;DHT22;11740;51.168;4.112;2023-12-20T12:18:21;7.20;99.90
23143;DHT22;11740;51.168;4.112;2023-12-20T12:20:48;7.20;99.90
23143;DHT22;11740;51.168;4.112;2023-12-20T12:23:23;7.20;99.90
23143;DHT22;11740;51.168;4.112;2023-12-20T12:25:50;7.20;99.90
23143;DHT22;11740;51.168;4.112;2023-12-20T12:28:17;7.20;99.90
23143;DHT22;11740;51.168;4.112;2023-12-20T12:30:59;7.30;99.90
23143;DHT22;11740;51.168;4.112;2023-12-20T12:33:26;7.30;99.90
23143;DHT22;11740;51.168;4.112;2023-12-20T12:35:54;7.30;99.90
23143;DHT22;11740;51.168;4.112;2023-12-20T12:38:22;7.30;99.90
23143;DHT22;11740;51.168;4.112;2023-12-20T12:40:49;7.30;99.90
23143;DHT22;11740;51.168;4.112;2023-12-20T12:43:16;7.40;99.90
23143;DHT22;11740;51.168;4.112;2023-12-20T12:45:43;7.40;99.90
23143;DHT22;11740;51.168;4.112;2023-12-20T12:48:11;7.40;99.90
23143;DHT22;11740;51.168;4.112;2023-12-20T12:50:38;7.40;1.00
23143;DHT22;11740;51.168;4.112;2023-12-20T12:53:05;7.40;1.00
23143;DHT22;11740;51.168;4.112;2023-12-20T12:55:33;7.40;99.90
23143;DHT22;11740;51.168;4.112;2023-12-20T12:58:01;7.40;99.90
23143;DHT22;11740;51.168;4.112;2023-12-20T13:00:28;7.50;99.90
23143;DHT22;11740;51.168;4.112;2023-12-20T13:02:55;7.50;99.90
23143;DHT22;11740;51.168;4.112;2023-12-20T13:05:22;7.50;99.90
23143;DHT22;11740;51.168;4.112;2023-12-20T13:07:49;7.50;99.90
23143;DHT22;11740;51.168;4.112;2023-12-20T13:10:16;7.50;99.90
23143;DHT22;11740;51.168;4.112;2023-12-20T13:12:44;7.50;99.90
23143;DHT22;11740;51.168;4.112;2023-12-20T13:15:11;7.60;99.90
23143;DHT22;11740;51.168;4.112;2023-12-20T13:17:38;7.50;99.90
23143;DHT22;11740;51.168;4.112;2023-12-20T13:20:05;7.60;99.90
23143;DHT22;11740;51.168;4.112;2023-12-20T13:22:33;7.60;99.90
23143;DHT22;11740;51.168;4.112;2023-12-20T13:25:00;7.60;99.90
23143;DHT22;11740;51.168;4.112;2023-12-20T13:27:29;7.70;99.90
23143;DHT22;11740;51.168;4.112;2023-12-20T13:29:56;7.70;90.00
23143;DHT22;11740;51.168;4.112;2023-12-20T13:32:23;7.70;81.00
23143;DHT22;11740;51.168;4.112;2023-12-20T13:34:50;7.70;73.40
23143;DHT22;11740;51.168;4.112;2023-12-20T13:37:17;7.70;29.70
23143;DHT22;11740;51.168;4.112;2023-12-20T13:39:45;7.70;10.80
23143;DHT22;11740;51.168;4.112;2023-12-20T13:42:14;7.70;42.70
23143;DHT22;11740;51.168;4.112;2023-12-20T13:44:43;7.70;90.20
23143;DHT22;11740;51.168;4.112;2023-12-20T13:47:11;7.80;1.00
23143;DHT22;11740;51.168;4.112;2023-12-20T13:49:37;7.80;1.00
23143;DHT22;11740;51.168;4.112;2023-12-20T13:52:05;7.80;30.60
23143;DHT22;11740;51.168;4.112;2023-12-20T13:54:32;7.90;1.00
23143;DHT22;11740;51.168;4.112;2023-12-20T13:56:59;7.90;1.00
23143;DHT22;11740;51.168;4.112;2023-12-20T13:59:41;7.80;31.70
23143;DHT22;11740;51.168;4.112;2023-12-20T14:02:08;7.90;99.90
23143;DHT22;11740;51.168;4.112;2023-12-20T14:04:35;7.90;99.90
23143;DHT22;11740;51.168;4.112;2023-12-20T14:07:09;7.90;8.30
23143;DHT22;11740;51.168;4.112;2023-12-20T14:09:39;7.90;63.30
23143;DHT22;11740;51.168;4.112;2023-12-20T14:12:12;7.90;99.90
23143;DHT22;11740;51.168;4.112;2023-12-20T14:14:39;7.90;99.90
23143;DHT22;11740;51.168;4.112;2023-12-20T14:17:06;7.90;99.90
23143;DHT22;11740;51.168;4.112;2023-12-20T14:19:33;7.90;99.90
23143;DHT22;11740;51.168;4.112;2023-12-20T14:22:00;7.90;96.80
23143;DHT22;11740;51.168;4.112;2023-12-20T14:24:31;8.00;1.00
23143;DHT22;11740;51.168;4.112;2023-12-20T14:26:58;8.00;1.00
23143;DHT22;11740;51.168;4.112;2023-12-20T14:29:25;8.00;1.00
23143;DHT22;11740;51.168;4.112;2023-12-20T14:31:53;8.00;1.00
23143;DHT22;11740;51.168;4.112;2023-12-20T14:34:20;8.00;1.00
23143;DHT22;11740;51.168;4.112;2023-12-20T14:36:47;8.00;1.00
23143;DHT22;11740;51.168;4.112;2023-12-20T14:39:14;8.00;1.00
23143;DHT22;11740;51.168;4.112;2023-12-20T14:41:42;8.10;1.00
23143;DHT22;11740;51.168;4.112;2023-12-20T14:44:09;8.10;1.00
23143;DHT22;11740;51.168;4.112;2023-12-20T14:46:36;8.10;1.00
23143;DHT22;11740;51.168;4.112;2023-12-20T14:49:07;8.10;1.00
23143;DHT22;11740;51.168;4.112;2023-12-20T14:51:34;8.10;1.00
23143;DHT22;11740;51.168;4.112;2023-12-20T14:54:02;8.10;1.00
23143;DHT22;11740;51.168;4.112;2023-12-20T14:56:29;8.10;1.00
23143;DHT22;11740;51.168;4.112;2023-12-20T14:58:57;8.10;1.00
23143;DHT22;11740;51.168;4.112;2023-12-20T15:01:29;8.10;1.00
23143;DHT22;11740;51.168;4.112;2023-12-20T15:03:55;8.10;1.00
23143;DHT22;11740;51.168;4.112;2023-12-20T15:06:23;8.20;1.00
23143;DHT22;11740;51.168;4.112;2023-12-20T15:08:52;8.10;1.00
23143;DHT22;11740;51.168;4.112;2023-12-20T15:11:19;8.10;1.00
23143;DHT22;11740;51.168;4.112;2023-12-20T15:13:46;8.10;1.00
23143;DHT22;11740;51.168;4.112;2023-12-20T15:16:21;8.10;1.00
23143;DHT22;11740;51.168;4.112;2023-12-20T15:18:48;8.20;1.00
23143;DHT22;11740;51.168;4.112;2023-12-20T15:21:15;8.20;99.90
23143;DHT22;11740;51.168;4.112;2023-12-20T15:23:42;8.20;99.90
23143;DHT22;11740;51.168;4.112;2023-12-20T15:26:22;8.20;1.00
23143;DHT22;11740;51.168;4.112;2023-12-20T15:28:50;8.20;1.00
23143;DHT22;11740;51.168;4.112;2023-12-20T15:31:17;8.20;1.00
23143;DHT22;11740;51.168;4.112;2023-12-20T15:33:44;8.20;1.00
23143;DHT22;11740;51.168;4.112;2023-12-20T15:36:11;8.10;1.00
23143;DHT22;11740;51.168;4.112;2023-12-20T15:38:37;8.20;1.00
23143;DHT22;11740;51.168;4.112;2023-12-20T15:41:05;8.20;1.00
23143;DHT22;11740;51.168;4.112;2023-12-20T15:43:32;8.20;1.00
23143;DHT22;11740;51.168;4.112;2023-12-20T15:45:59;8.20;1.00
23143;DHT22;11740;51.168;4.112;2023-12-20T15:48:28;8.20;1.00
23143;DHT22;11740;51.168;4.112;2023-12-20T15:50:56;8.20;1.00
23143;DHT22;11740;51.168;4.112;2023-12-20T15:53:23;8.20;1.00
23143;DHT22;11740;51.168;4.112;2023-12-20T15:55:50;8.20;1.00
23143;DHT22;11740;51.168;4.112;2023-12-20T15:58:18;8.20;1.00
23143;DHT22;11740;51.168;4.112;2023-12-20T16:00:45;8.20;1.00
23143;DHT22;11740;51.168;4.112;2023-12-20T16:03:11;8.20;1.00
23143;DHT22;11740;51.168;4.112;2023-12-20T16:05:52;8.20;1.00
23143;DHT22;11740;51.168;4.112;2023-12-20T16:08:19;8.20;1.00
23143;DHT22;11740;51.168;4.112;2023-12-20T16:10:46;8.20;1.00
23143;DHT22;11740;51.168;4.112;2023-12-20T16:13:13;8.20;1.00
23143;DHT22;11740;51.168;4.112;2023-12-20T16:15:40;8.20;1.00
23143;DHT22;11740;51.168;4.112;2023-12-20T16:18:08;8.20;1.00
23143;DHT22;11740;51.168;4.112;2023-12-20T16:20:38;8.20;1.00
23143;DHT22;11740;51.168;4.112;2023-12-20T16:23:05;8.20;1.00
23143;DHT22;11740;51.168;4.112;2023-12-20T16:25:32;8.30;1.00
23143;DHT22;11740;51.168;4.112;2023-12-20T16:27:59;8.20;5.10
23143;DHT22;11740;51.168;4.112;2023-12-20T16:30:27;8.20;50.30
23143;DHT22;11740;51.168;4.112;2023-12-20T16:32:54;8.20;52.90
23143;DHT22;11740;51.168;4.112;2023-12-20T16:35:21;8.20;99.90
23143;DHT22;11740;51.168;4.112;2023-12-20T16:37:48;8.20;93.00
23143;DHT22;11740;51.168;4.112;2023-12-20T16:40:15;8.20;99.90
23143;DHT22;11740;51.168;4.112;2023-12-20T16:42:46;8.20;99.90
23143;DHT22;11740;51.168;4.112;2023-12-20T16:45:13;8.20;99.90
23143;DHT22;11740;51.168;4.112;2023-12-20T16:47:40;8.30;99.90
23143;DHT22;11740;51.168;4.112;2023-12-20T16:50:07;8.20;99.90
23143;DHT22;11740;51.168;4.112;2023-12-20T16:52:36;8.30;99.90
23143;DHT22;11740;51.168;4.112;2023-12-20T16:55:04;8.20;99.90
23143;DHT22;11740;51.168;4.112;2023-12-20T16:57:32;8.20;99.90
23143;DHT22;11740;51.168;4.112;2023-12-20T16:59:58;8.20;99.90
23143;DHT22;11740;51.168;4.112;2023-12-20T17:02:25;8.20;99.90
23143;DHT22;11740;51.168;4.112;2023-12-20T17:04:52;8.20;99.90
23143;DHT22;11740;51.168;4.112;2023-12-20T17:07:19;8.20;99.90
23143;DHT22;11740;51.168;4.112;2023-12-20T17:09:46;8.20;99.90
23143;DHT22;11740;51.168;4.112;2023-12-20T17:12:15;8.20;99.90
23143;DHT22;11740;51.168;4.112;2023-12-20T17:14:42;8.20;99.90
23143;DHT22;11740;51.168;4.112;2023-12-20T17:17:09;8.20;99.90
23143;DHT22;11740;51.168;4.112;2023-12-20T17:19:36;8.20;99.90
23143;DHT22;11740;51.168;4.112;2023-12-20T17:22:03;8.20;99.90
23143;DHT22;11740;51.168;4.112;2023-12-20T17:24:31;8.20;99.90
23143;DHT22;11740;51.168;4.112;2023-12-20T17:26:58;8.20;99.90
23143;DHT22;11740;51.168;4.112;2023-12-20T17:29:24;8.20;99.90
23143;DHT22;11740;51.168;4.112;2023-12-20T17:31:51;8.30;99.90
23143;DHT22;11740;51.168;4.112;2023-12-20T17:34:18;8.30;99.90
23143;DHT22;11740;51.168;4.112;2023-12-20T17:36:45;8.30;99.90
23143;DHT22;11740;51.168;4.112;2023-12-20T17:39:13;8.30;99.90
23143;DHT22;11740;51.168;4.112;2023-12-20T17:41:43;8.30;99.90
23143;DHT22;11740;51.168;4.112;2023-12-20T17:44:10;8.30;99.90
23143;DHT22;11740;51.168;4.112;2023-12-20T17:46:39;8.30;99.90
23143;DHT22;11740;51.168;4.112;2023-12-20T17:49:06;8.30;99.90
23143;DHT22;11740;51.168;4.112;2023-12-20T17:51:33;8.30;99.90
23143;DHT22;11740;51.168;4.112;2023-12-20T17:54:00;8.30;99.90
23143;DHT22;11740;51.168;4.112;2023-12-20T17:56:30;8.30;99.90
23143;DHT22;11740;51.168;4.112;2023-12-20T17:58:57;8.30;99.90
23143;DHT22;11740;51.168;4.112;2023-12-20T18:01:23;8.30;99.90
23143;DHT22;11740;51.168;4.112;2023-12-20T18:03:50;8.20;99.90
23143;DHT22;11740;51.168;4.112;2023-12-20T18:06:17;8.30;99.90
23143;DHT22;11740;51.168;4.112;2023-12-20T18:08:45;8.30;99.90
23143;DHT22;11740;51.168;4.112;2023-12-20T18:11:12;8.30;99.90
23143;DHT22;11740;51.168;4.112;2023-12-20T18:13:39;8.30;99.90
23143;DHT22;11740;51.168;4.112;2023-12-20T18:16:06;8.20;99.90
23143;DHT22;11740;51.168;4.112;2023-12-20T18:18:37;8.30;99.90
23143;DHT22;11740;51.168;4.112;2023-12-20T18:21:04;8.30;99.90
23143;DHT22;11740;51.168;4.112;2023-12-20T18:23:31;8.30;99.90
23143;DHT22;11740;51.168;4.112;2023-12-20T18:25:58;8.30;99.90
23143;DHT22;11740;51.168;4.112;2023-12-20T18:28:25;8.30;99.90
23143;DHT22;11740;51.168;4.112;2023-12-20T18:30:52;8.30;99.90
23143;DHT22;11740;51.168;4.112;2023-12-20T18:33:19;8.30;99.90
23143;DHT22;11740;51.168;4.112;2023-12-20T18:35:46;8.40;99.90
23143;DHT22;11740;51.168;4.112;2023-12-20T18:38:14;8.30;99.90
23143;DHT22;11740;51.168;4.112;2023-12-20T18:40:42;8.40;99.90
23143;DHT22;11740;51.168;4.112;2023-12-20T18:43:14;8.40;99.90
23143;DHT22;11740;51.168;4.112;2023-12-20T18:45:41;8.40;99.90
23143;DHT22;11740;51.168;4.112;2023-12-20T18:48:08;8.40;99.90
23143;DHT22;11740;51.168;4.112;2023-12-20T18:50:37;8.40;99.90
23143;DHT22;11740;51.168;4.112;2023-12-20T18:53:04;8.40;99.90
23143;DHT22;11740;51.168;4.112;2023-12-20T18:55:31;8.40;99.90
23143;DHT22;11740;51.168;4.112;2023-12-20T18:57:58;8.40;99.90
23143;DHT22;11740;51.168;4.112;2023-12-20T19:00:25;8.40;99.90
23143;DHT22;11740;51.168;4.112;2023-12-20T19:02:53;8.40;99.90
23143;DHT22;11740;51.168;4.112;2023-12-20T19:05:21;8.40;99.90
23143;DHT22;11740;51.168;4.112;2023-12-20T19:07:48;8.40;99.90
23143;DHT22;11740;51.168;4.112;2023-12-20T19:10:16;8.40;99.90
23143;DHT22;11740;51.168;4.112;2023-12-20T19:12:43;8.40;99.90
23143;DHT22;11740;51.168;4.112;2023-12-20T19:15:10;8.40;99.90
23143;DHT22;11740;51.168;4.112;2023-12-20T19:17:37;8.50;99.90
23143;DHT22;11740;51.168;4.112;2023-12-20T19:20:06;8.40;99.90
23143;DHT22;11740;51.168;4.112;2023-12-20T19:22:33;8.50;99.90
23143;DHT22;11740;51.168;4.112;2023-12-20T19:25:01;8.50;99.90
23143;DHT22;11740;51.168;4.112;2023-12-20T19:27:33;8.40;99.90
23143;DHT22;11740;51.168;4.112;2023-12-20T19:30:00;8.40;99.90
23143;DHT22;11740;51.168;4.112;2023-12-20T19:32:27;8.40;99.90